createdAt,value
2022-07-26T00:00:08.325Z,72.87
2022-07-26T00:01:08.432Z,72.67
2022-07-26T00:02:08.347Z,72.97
2022-07-26T00:03:08.294Z,72.87
2022-07-26T00:04:08.276Z,72.56
2022-07-26T00:05:08.281Z,72.71
2022-07-26T00:06:08.255Z,72.71
2022-07-26T00:07:08.272Z,72.90
2022-07-26T00:08:08.227Z,72.90
2022-07-26T00:09:08.539Z,71.70
2022-07-26T00:10:08.237Z,70.86
2022-07-26T00:11:08.194Z,70.86
2022-07-26T00:12:08.188Z,70.76
2022-07-26T00:13:08.167Z,70.73
2022-07-26T00:14:08.192Z,70.93
2022-07-26T00:15:08.145Z,71.16
2022-07-26T00:16:08.267Z,71.16
2022-07-26T00:17:08.129Z,71.66
2022-07-26T00:18:08.185Z,71.66
2022-07-26T00:19:08.328Z,72.06
2022-07-26T00:20:08.098Z,71.97
2022-07-26T00:21:08.128Z,71.97
2022-07-26T00:22:08.069Z,72.67
2022-07-26T00:23:08.071Z,72.47
2022-07-26T00:24:08.061Z,72.67
2022-07-26T00:25:08.033Z,72.67
2022-07-26T00:26:08.010Z,72.77
2022-07-26T00:27:08.059Z,73.00
2022-07-26T00:28:08.008Z,73.61
2022-07-26T00:29:08.204Z,73.84
2022-07-26T00:30:07.977Z,74.04
2022-07-26T00:31:08.020Z,74.24
2022-07-26T00:32:07.983Z,74.24
2022-07-26T00:33:07.955Z,74.44
2022-07-26T00:34:07.944Z,75.15
2022-07-26T00:35:07.930Z,74.74
2022-07-26T00:36:07.912Z,74.85
2022-07-26T00:37:07.925Z,74.85
2022-07-26T00:38:07.916Z,74.85
2022-07-26T00:39:08.178Z,75.25
2022-07-26T00:40:07.861Z,75.29
2022-07-26T00:41:07.895Z,75.49
2022-07-26T00:42:07.876Z,75.68
2022-07-26T00:43:07.871Z,75.99
2022-07-26T00:44:07.824Z,75.99
2022-07-26T00:45:07.795Z,75.99
2022-07-26T00:46:07.867Z,76.29
2022-07-26T00:47:07.781Z,76.15
2022-07-26T00:48:07.767Z,76.15
2022-07-26T00:49:08.051Z,76.25
2022-07-26T00:50:07.786Z,76.25
2022-07-26T00:51:07.736Z,76.45
2022-07-26T00:52:07.736Z,76.45
2022-07-26T00:53:07.705Z,76.45
2022-07-26T00:54:07.767Z,76.45
2022-07-26T00:55:07.699Z,76.65
2022-07-26T00:56:07.668Z,76.45
2022-07-26T00:57:07.666Z,76.86
2022-07-26T00:58:07.655Z,76.96
2022-07-26T00:59:07.899Z,77.06
2022-07-26T01:00:07.649Z,76.86
2022-07-26T01:01:07.731Z,76.96
2022-07-26T01:02:07.692Z,76.45
2022-07-26T01:03:07.591Z,76.15
2022-07-26T01:04:07.816Z,76.05
2022-07-26T01:05:07.618Z,75.55
2022-07-26T01:06:07.561Z,75.15
2022-07-26T01:07:14.974Z,75.15
2022-07-26T01:08:08.544Z,75.05
2022-07-26T01:09:07.537Z,74.85
2022-07-26T01:10:07.522Z,74.95
2022-07-26T01:11:07.532Z,75.05
2022-07-26T01:12:07.502Z,75.15
2022-07-26T01:13:07.483Z,75.15
2022-07-26T01:14:07.698Z,75.55
2022-07-26T01:15:07.462Z,75.55
2022-07-26T01:16:07.479Z,75.45
2022-07-26T01:17:07.475Z,75.45
2022-07-26T01:18:07.422Z,75.75
2022-07-26T01:19:07.415Z,75.75
2022-07-26T01:20:07.403Z,75.89
2022-07-26T01:21:09.582Z,76.09
2022-07-26T01:22:13.913Z,76.19
2022-07-26T01:23:08.376Z,76.39
2022-07-26T01:24:07.745Z,76.49
2022-07-26T01:25:07.347Z,76.69
2022-07-26T01:26:08.165Z,76.69
2022-07-26T01:27:07.315Z,76.69
2022-07-26T01:28:07.338Z,76.79
2022-07-26T01:29:07.287Z,76.83
2022-07-26T01:30:07.287Z,76.73
2022-07-26T01:31:07.367Z,76.53
2022-07-26T01:32:07.266Z,76.63
2022-07-26T01:33:07.251Z,76.73
2022-07-26T01:34:07.515Z,76.73
2022-07-26T01:35:07.231Z,76.73
2022-07-26T01:36:07.226Z,76.43
2022-07-26T01:37:07.231Z,76.53
2022-07-26T01:38:07.188Z,76.29
2022-07-26T01:39:07.181Z,76.39
2022-07-26T01:40:07.279Z,76.39
2022-07-26T01:41:07.158Z,76.19
2022-07-26T01:42:07.156Z,76.19
2022-07-26T01:43:07.130Z,76.19
2022-07-26T01:44:07.717Z,76.09
2022-07-26T01:45:07.150Z,76.09
2022-07-26T01:46:07.163Z,75.99
2022-07-26T01:47:07.092Z,76.09
2022-07-26T01:48:07.093Z,76.19
2022-07-26T01:49:07.198Z,76.19
2022-07-26T01:50:07.082Z,75.99
2022-07-26T01:51:07.061Z,76.19
2022-07-26T01:52:07.034Z,76.19
2022-07-26T01:53:07.033Z,76.09
2022-07-26T01:54:07.147Z,76.19
2022-07-26T01:55:07.013Z,76.19
2022-07-26T01:56:07.030Z,76.19
2022-07-26T01:57:06.986Z,75.85
2022-07-26T01:58:06.969Z,74.95
2022-07-26T01:59:06.953Z,75.45
2022-07-26T02:00:06.934Z,75.65
2022-07-26T02:01:06.923Z,75.75
2022-07-26T02:02:07.058Z,75.85
2022-07-26T02:03:06.980Z,75.95
2022-07-26T02:04:07.108Z,75.55
2022-07-26T02:05:06.895Z,75.85
2022-07-26T02:06:06.869Z,75.95
2022-07-26T02:07:12.806Z,76.15
2022-07-26T02:08:07.909Z,76.15
2022-07-26T02:09:07.741Z,76.19
2022-07-26T02:10:07.839Z,76.29
2022-07-26T02:11:06.836Z,76.39
2022-07-26T02:12:06.800Z,76.29
2022-07-26T02:13:06.786Z,75.99
2022-07-26T02:14:06.972Z,75.99
2022-07-26T02:15:06.771Z,76.09
2022-07-26T02:16:06.819Z,76.19
2022-07-26T02:17:06.806Z,76.19
2022-07-26T02:18:06.749Z,76.49
2022-07-26T02:19:06.727Z,76.49
2022-07-26T02:20:06.733Z,76.69
2022-07-26T02:21:06.717Z,76.39
2022-07-26T02:22:06.701Z,76.49
2022-07-26T02:23:06.680Z,76.29
2022-07-26T02:24:06.994Z,76.49
2022-07-26T02:25:06.709Z,76.69
2022-07-26T02:26:06.639Z,77.00
2022-07-26T02:27:06.629Z,77.03
2022-07-26T02:28:06.620Z,77.23
2022-07-26T02:29:06.632Z,77.43
2022-07-26T02:30:06.590Z,77.73
2022-07-26T02:31:06.657Z,77.94
2022-07-26T02:32:06.580Z,78.14
2022-07-26T02:33:06.572Z,78.34
2022-07-26T02:34:06.749Z,78.47
2022-07-26T02:35:06.541Z,78.78
2022-07-26T02:36:06.558Z,78.98
2022-07-26T02:37:06.522Z,78.88
2022-07-26T02:38:06.563Z,79.08
2022-07-26T02:39:06.502Z,79.08
2022-07-26T02:40:06.495Z,78.38
2022-07-26T02:41:06.484Z,78.58
2022-07-26T02:42:06.484Z,78.58
2022-07-26T02:43:06.475Z,78.67
2022-07-26T02:44:06.830Z,78.58
2022-07-26T02:45:06.447Z,78.58
2022-07-26T02:46:06.484Z,78.47
2022-07-26T02:47:06.426Z,78.58
2022-07-26T02:48:06.439Z,78.38
2022-07-26T02:49:06.493Z,78.27
2022-07-26T02:50:06.373Z,78.27
2022-07-26T02:51:06.409Z,78.21
2022-07-26T02:52:06.395Z,78.21
2022-07-26T02:53:06.349Z,78.21
2022-07-26T02:54:06.688Z,78.31
2022-07-26T02:55:06.318Z,78.31
2022-07-26T02:56:06.334Z,77.81
2022-07-26T02:57:06.345Z,77.70
2022-07-26T02:58:06.326Z,77.70
2022-07-26T02:59:06.267Z,77.70
2022-07-26T03:00:06.262Z,77.70
2022-07-26T03:01:06.274Z,77.81
2022-07-26T03:02:06.320Z,77.81
2022-07-26T03:03:06.278Z,77.91
2022-07-26T03:04:06.433Z,77.81
2022-07-26T03:05:06.230Z,77.91
2022-07-26T03:06:06.227Z,77.95
2022-07-26T03:07:06.225Z,77.95
2022-07-26T03:08:06.187Z,78.05
2022-07-26T03:09:06.162Z,78.05
2022-07-26T03:10:06.283Z,77.84
2022-07-26T03:11:10.354Z,78.05
2022-07-26T03:12:07.130Z,77.95
2022-07-26T03:13:06.122Z,78.05
2022-07-26T03:14:06.482Z,77.95
2022-07-26T03:15:06.124Z,77.84
2022-07-26T03:16:06.140Z,77.75
2022-07-26T03:17:06.083Z,77.84
2022-07-26T03:18:06.075Z,77.75
2022-07-26T03:19:06.043Z,77.55
2022-07-26T03:20:06.032Z,77.44
2022-07-26T03:21:06.055Z,77.34
2022-07-26T03:22:06.036Z,77.14
2022-07-26T03:23:05.993Z,77.14
2022-07-26T03:24:06.376Z,77.14
2022-07-26T03:25:06.000Z,76.84
2022-07-26T03:26:05.987Z,76.74
2022-07-26T03:27:05.973Z,76.64
2022-07-26T03:28:05.944Z,76.34
2022-07-26T03:29:05.952Z,76.14
2022-07-26T03:30:05.926Z,76.14
2022-07-26T03:31:05.965Z,76.23
2022-07-26T03:32:05.925Z,76.14
2022-07-26T03:33:05.895Z,76.23
2022-07-26T03:34:06.206Z,76.43
2022-07-26T03:35:05.879Z,76.74
2022-07-26T03:36:05.894Z,76.94
2022-07-26T03:37:06.907Z,77.38
2022-07-26T03:38:05.837Z,76.97
2022-07-26T03:39:05.856Z,76.64
2022-07-26T03:40:05.812Z,76.64
2022-07-26T03:41:05.800Z,76.43
2022-07-26T03:42:05.789Z,76.34
2022-07-26T03:43:05.810Z,76.43
2022-07-26T03:44:06.146Z,76.64
2022-07-26T03:45:05.777Z,76.64
2022-07-26T03:46:05.802Z,76.84
2022-07-26T03:47:05.719Z,76.74
2022-07-26T03:48:05.713Z,76.77
2022-07-26T03:49:05.794Z,76.67
2022-07-26T03:50:05.728Z,76.84
2022-07-26T03:51:05.696Z,76.77
2022-07-26T03:52:05.680Z,76.97
2022-07-26T03:53:05.668Z,77.28
2022-07-26T03:54:05.916Z,77.38
2022-07-26T03:55:05.634Z,77.68
2022-07-26T03:56:05.659Z,77.68
2022-07-26T03:57:05.616Z,78.02
2022-07-26T03:58:05.612Z,78.32
2022-07-26T03:59:05.604Z,78.42
2022-07-26T04:00:05.613Z,78.63
2022-07-26T04:01:05.675Z,78.52
2022-07-26T04:02:05.665Z,78.12
2022-07-26T04:03:05.592Z,78.22
2022-07-26T04:04:05.953Z,78.63
2022-07-26T04:05:05.532Z,78.72
2022-07-26T04:06:05.521Z,78.83
2022-07-26T04:07:05.566Z,78.92
2022-07-26T04:08:05.519Z,78.72
2022-07-26T04:09:05.493Z,78.63
2022-07-26T04:10:05.467Z,78.83
2022-07-26T04:11:05.481Z,79.03
2022-07-26T04:12:05.446Z,79.13
2022-07-26T04:13:05.483Z,79.13
2022-07-26T04:14:05.832Z,79.53
2022-07-26T04:15:05.437Z,79.83
2022-07-26T04:16:05.434Z,79.93
2022-07-26T04:17:05.480Z,80.07
2022-07-26T04:18:05.408Z,79.93
2022-07-26T04:19:05.407Z,80.07
2022-07-26T04:20:05.366Z,80.18
2022-07-26T04:21:05.368Z,80.18
2022-07-26T04:22:05.366Z,80.24
2022-07-26T04:23:05.345Z,80.38
2022-07-26T04:24:06.712Z,80.44
2022-07-26T04:25:05.319Z,80.58
2022-07-26T04:26:05.297Z,80.78
2022-07-26T04:27:05.268Z,81.18
2022-07-26T04:28:05.298Z,81.48
2022-07-26T04:29:05.268Z,81.59
2022-07-26T04:30:06.718Z,81.68
2022-07-26T04:31:05.292Z,81.89
2022-07-26T04:32:05.240Z,81.79
2022-07-26T04:33:05.209Z,81.89
2022-07-26T04:34:05.547Z,82.09
2022-07-26T04:35:05.223Z,82.50
2022-07-26T04:36:05.211Z,82.19
2022-07-26T04:37:05.191Z,82.53
2022-07-26T04:38:05.181Z,82.53
2022-07-26T04:39:05.150Z,82.39
2022-07-26T04:40:05.150Z,81.79
2022-07-26T04:41:05.174Z,81.68
2022-07-26T04:42:05.165Z,81.99
2022-07-26T04:43:05.093Z,81.28
2022-07-26T04:44:05.323Z,81.08
2022-07-26T04:45:08.356Z,81.18
2022-07-26T04:46:05.131Z,81.48
2022-07-26T04:47:05.102Z,81.35
2022-07-26T04:48:05.042Z,80.84
2022-07-26T04:49:05.131Z,81.35
2022-07-26T04:50:05.028Z,81.24
2022-07-26T04:51:05.005Z,81.45
2022-07-26T04:52:05.003Z,81.55
2022-07-26T04:53:05.011Z,81.65
2022-07-26T04:54:05.439Z,81.15
2022-07-26T04:55:04.984Z,81.35
2022-07-26T04:56:04.963Z,80.54
2022-07-26T04:57:04.959Z,79.80
2022-07-26T04:58:04.986Z,80.40
2022-07-26T04:59:04.905Z,80.20
2022-07-26T05:00:20.708Z,79.60
2022-07-26T05:01:10.467Z,79.69
2022-07-26T05:02:06.021Z,79.90
2022-07-26T05:03:04.932Z,77.84
2022-07-26T05:04:05.053Z,77.34
2022-07-26T05:05:04.837Z,76.40
2022-07-26T05:06:04.828Z,75.99
2022-07-26T05:07:04.807Z,75.76
2022-07-26T05:08:04.808Z,75.56
2022-07-26T05:09:04.803Z,75.35
2022-07-26T05:10:04.825Z,75.56
2022-07-26T05:11:04.777Z,75.15
2022-07-26T05:12:04.767Z,75.15
2022-07-26T05:13:04.738Z,74.92
2022-07-26T05:14:04.909Z,75.22
2022-07-26T05:15:04.756Z,75.22
2022-07-26T05:16:11.459Z,75.12
2022-07-26T05:17:08.834Z,75.42
2022-07-26T05:18:06.798Z,75.02
2022-07-26T05:19:04.677Z,74.82
2022-07-26T05:20:04.670Z,75.12
2022-07-26T05:21:04.709Z,75.02
2022-07-26T05:22:04.660Z,74.92
2022-07-26T05:23:04.645Z,74.41
2022-07-26T05:24:04.821Z,74.21
2022-07-26T05:25:04.706Z,74.18
2022-07-26T05:26:04.602Z,74.28
2022-07-26T05:27:04.649Z,74.38
2022-07-26T05:28:04.584Z,73.88
2022-07-26T05:29:04.565Z,73.88
2022-07-26T05:30:04.558Z,74.18
2022-07-26T05:31:04.579Z,73.98
2022-07-26T05:32:04.538Z,73.78
2022-07-26T05:33:04.553Z,73.78
2022-07-26T05:34:04.749Z,73.24
2022-07-26T05:35:04.497Z,73.34
2022-07-26T05:36:04.482Z,73.14
2022-07-26T05:37:04.480Z,73.54
2022-07-26T05:38:04.455Z,73.54
2022-07-26T05:39:04.484Z,73.64
2022-07-26T05:40:04.472Z,73.34
2022-07-26T05:41:04.426Z,73.24
2022-07-26T05:42:04.430Z,73.34
2022-07-26T05:43:04.427Z,73.21
2022-07-26T05:44:04.707Z,73.10
2022-07-26T05:45:04.416Z,73.00
2022-07-26T05:46:09.278Z,72.90
2022-07-26T05:47:05.386Z,72.60
2022-07-26T05:48:04.356Z,72.71
2022-07-26T05:49:04.434Z,72.67
2022-07-26T05:50:04.378Z,72.56
2022-07-26T05:51:04.351Z,72.56
2022-07-26T05:52:04.309Z,72.06
2022-07-26T05:53:04.288Z,72.17
2022-07-26T05:54:04.466Z,71.86
2022-07-26T05:55:04.280Z,72.06
2022-07-26T05:56:04.287Z,72.06
2022-07-26T05:57:04.268Z,71.97
2022-07-26T05:58:04.243Z,71.93
2022-07-26T05:59:04.229Z,71.83
2022-07-26T06:00:04.208Z,71.63
2022-07-26T06:01:04.230Z,71.13
2022-07-26T06:02:04.235Z,71.13
2022-07-26T06:03:04.196Z,71.23
2022-07-26T06:04:04.227Z,71.00
2022-07-26T06:05:04.249Z,70.79
2022-07-26T06:06:04.140Z,70.50
2022-07-26T06:07:04.159Z,70.39
2022-07-26T06:08:04.122Z,70.50
2022-07-26T06:09:04.163Z,69.89
2022-07-26T06:10:04.115Z,70.09
2022-07-26T06:11:04.133Z,70.50
2022-07-26T06:12:04.382Z,70.29
2022-07-26T06:13:04.094Z,70.19
2022-07-26T06:14:04.079Z,69.69
2022-07-26T06:15:04.053Z,70.29
2022-07-26T06:16:05.063Z,69.66
2022-07-26T06:17:04.109Z,69.46
2022-07-26T06:18:04.063Z,69.46
2022-07-26T06:19:04.003Z,69.26
2022-07-26T06:20:04.006Z,69.79
2022-07-26T06:21:04.015Z,69.89
2022-07-26T06:22:03.995Z,69.76
2022-07-26T06:23:03.987Z,69.66
2022-07-26T06:24:03.950Z,69.26
2022-07-26T06:25:03.935Z,69.35
2022-07-26T06:26:03.926Z,69.59
2022-07-26T06:27:05.257Z,69.56
2022-07-26T06:28:03.931Z,69.35
2022-07-26T06:29:03.916Z,69.06
2022-07-26T06:30:03.886Z,69.35
2022-07-26T06:31:03.866Z,68.65
2022-07-26T06:32:03.974Z,69.26
2022-07-26T06:33:03.850Z,69.06
2022-07-26T06:34:03.869Z,69.06
2022-07-26T06:35:03.831Z,69.16
2022-07-26T06:36:03.809Z,68.82
2022-07-26T06:37:03.801Z,68.62
2022-07-26T06:38:03.809Z,68.02
2022-07-26T06:39:03.772Z,68.62
2022-07-26T06:40:03.778Z,68.62
2022-07-26T06:41:03.740Z,67.99
2022-07-26T06:42:03.749Z,68.02
2022-07-26T06:43:04.664Z,67.72
2022-07-26T06:44:03.722Z,67.52
2022-07-26T06:45:03.742Z,67.82
2022-07-26T06:46:03.764Z,67.92
2022-07-26T06:47:03.856Z,68.02
2022-07-26T06:48:03.670Z,67.89
2022-07-26T06:49:03.704Z,67.79
2022-07-26T06:50:03.663Z,67.29
2022-07-26T06:51:03.687Z,67.09
2022-07-26T06:52:03.642Z,67.49
2022-07-26T06:53:03.627Z,67.49
2022-07-26T06:54:03.606Z,67.29
2022-07-26T06:55:03.616Z,67.29
2022-07-26T06:56:03.584Z,66.96
2022-07-26T06:57:03.596Z,66.99
2022-07-26T06:58:03.581Z,66.75
2022-07-26T06:59:09.076Z,66.46
2022-07-26T07:00:04.536Z,65.95
2022-07-26T07:01:03.626Z,66.25
2022-07-26T07:02:03.550Z,66.05
2022-07-26T07:03:03.537Z,66.16
2022-07-26T07:04:03.485Z,65.95
2022-07-26T07:05:03.514Z,66.36
2022-07-26T07:06:03.457Z,66.42
2022-07-26T07:07:05.894Z,65.83
2022-07-26T07:08:03.435Z,65.62
2022-07-26T07:09:03.447Z,65.42
2022-07-26T07:10:03.427Z,65.59
2022-07-26T07:11:03.450Z,64.62
2022-07-26T07:12:09.520Z,65.72
2022-07-26T07:13:04.387Z,65.83
2022-07-26T07:14:03.543Z,65.49
2022-07-26T07:15:03.396Z,64.39
2022-07-26T07:16:03.402Z,63.89
2022-07-26T07:17:03.333Z,64.49
2022-07-26T07:18:04.332Z,63.89
2022-07-26T07:19:03.321Z,63.76
2022-07-26T07:20:03.303Z,63.39
2022-07-26T07:21:03.317Z,63.39
2022-07-26T07:22:03.293Z,63.59
2022-07-26T07:23:03.270Z,63.53
2022-07-26T07:24:03.260Z,63.79
2022-07-26T07:25:03.284Z,63.29
2022-07-26T07:26:03.228Z,63.26
2022-07-26T07:27:04.458Z,62.86
2022-07-26T07:28:03.231Z,63.46
2022-07-26T07:29:04.110Z,63.46
2022-07-26T07:30:03.239Z,63.06
2022-07-26T07:31:03.865Z,63.36
2022-07-26T07:32:03.308Z,63.66
2022-07-26T07:33:03.553Z,63.17
2022-07-26T07:34:05.241Z,63.23
2022-07-26T07:35:03.123Z,62.73
2022-07-26T07:36:03.105Z,62.43
2022-07-26T07:37:03.140Z,63.23
2022-07-26T07:38:03.133Z,63.86
2022-07-26T07:39:06.301Z,64.19
2022-07-26T07:40:03.069Z,64.39
2022-07-26T07:41:03.117Z,63.96
2022-07-26T07:42:03.045Z,63.43
2022-07-26T07:43:03.118Z,62.73
2022-07-26T07:44:03.030Z,63.43
2022-07-26T07:45:03.008Z,63.46
2022-07-26T07:46:03.016Z,63.66
2022-07-26T07:47:03.077Z,63.13
2022-07-26T07:48:02.979Z,62.83
2022-07-26T07:49:03.054Z,62.73
2022-07-26T07:50:02.973Z,62.83
2022-07-26T07:51:02.948Z,62.83
2022-07-26T07:52:02.956Z,62.46
2022-07-26T07:53:02.921Z,63.36
2022-07-26T07:54:05.595Z,62.83
2022-07-26T07:55:37.078Z,62.70
2022-07-26T07:56:03.898Z,62.01
2022-07-26T07:57:02.898Z,62.01
2022-07-26T07:58:02.860Z,61.47
2022-07-26T07:59:02.850Z,61.25
2022-07-26T08:00:02.840Z,60.25
2022-07-26T08:01:02.883Z,60.72
2022-07-26T08:02:02.815Z,60.39
2022-07-26T08:03:02.802Z,59.30
2022-07-26T08:04:02.816Z,59.09
2022-07-26T08:05:11.486Z,59.04
2022-07-26T08:06:03.811Z,58.97
2022-07-26T08:07:02.770Z,58.87
2022-07-26T08:08:02.763Z,59.00
2022-07-26T08:09:03.772Z,59.49
2022-07-26T08:10:02.734Z,59.19
2022-07-26T08:11:02.714Z,59.32
2022-07-26T08:12:02.731Z,59.75
2022-07-26T08:13:02.694Z,59.95
2022-07-26T08:14:02.685Z,60.05
2022-07-26T08:15:07.399Z,59.78
2022-07-26T08:16:03.720Z,60.58
2022-07-26T08:17:02.723Z,60.00
2022-07-26T08:18:02.670Z,60.00
2022-07-26T08:19:02.626Z,60.00
2022-07-26T08:20:02.626Z,59.58
2022-07-26T08:21:02.607Z,58.85
2022-07-26T08:22:02.589Z,58.23
2022-07-26T08:23:02.583Z,57.82
2022-07-26T08:24:02.588Z,57.20
2022-07-26T08:25:02.572Z,56.87
2022-07-26T08:26:06.668Z,56.18
2022-07-26T08:27:02.528Z,56.18
2022-07-26T08:28:04.119Z,56.81
2022-07-26T08:29:02.700Z,56.55
2022-07-26T08:30:02.512Z,55.76
2022-07-26T08:31:02.618Z,55.43
2022-07-26T08:32:02.568Z,56.49
2022-07-26T08:33:02.481Z,54.58
2022-07-26T08:34:02.464Z,53.69
2022-07-26T08:35:17.686Z,55.05
2022-07-26T08:36:03.441Z,55.68
2022-07-26T08:37:16.660Z,55.51
2022-07-26T08:38:03.453Z,56.18
2022-07-26T08:39:02.410Z,56.38
2022-07-26T08:40:02.414Z,56.15
2022-07-26T08:41:02.412Z,55.85
2022-07-26T08:42:02.395Z,55.35
2022-07-26T08:43:02.364Z,55.50
2022-07-26T08:44:02.357Z,53.78
2022-07-26T08:45:02.410Z,53.98
2022-07-26T08:46:02.327Z,53.39
2022-07-26T08:47:02.497Z,54.31
2022-07-26T08:48:17.859Z,54.41
2022-07-26T08:49:03.332Z,55.33
2022-07-26T08:50:02.276Z,55.20
2022-07-26T08:51:02.294Z,55.27
2022-07-26T08:52:02.250Z,53.33
2022-07-26T08:53:02.277Z,53.21
2022-07-26T08:54:05.603Z,53.01
2022-07-26T08:55:02.236Z,53.14
2022-07-26T08:56:07.273Z,54.33
2022-07-26T08:57:03.200Z,53.04
2022-07-26T08:58:02.202Z,53.26
2022-07-26T08:59:02.243Z,54.31
2022-07-26T09:00:02.157Z,55.95
2022-07-26T09:01:02.200Z,55.78
2022-07-26T09:02:02.152Z,56.51
2022-07-26T09:03:02.130Z,56.83
2022-07-26T09:04:02.198Z,57.53
2022-07-26T09:05:02.140Z,57.00
2022-07-26T09:06:02.100Z,57.10
2022-07-26T09:07:02.098Z,56.68
2022-07-26T09:08:02.078Z,56.01
2022-07-26T09:09:02.094Z,56.70
2022-07-26T09:10:02.062Z,56.65
2022-07-26T09:11:02.063Z,55.73
2022-07-26T09:12:02.049Z,55.43
2022-07-26T09:13:02.032Z,55.05
2022-07-26T09:14:02.006Z,55.55
2022-07-26T09:15:01.987Z,55.05
2022-07-26T09:16:02.035Z,55.43
2022-07-26T09:17:02.016Z,55.70
2022-07-26T09:18:01.968Z,55.40
2022-07-26T09:19:01.963Z,55.20
2022-07-26T09:20:01.958Z,55.57
2022-07-26T09:21:01.923Z,55.05
2022-07-26T09:22:02.390Z,54.97
2022-07-26T09:23:01.955Z,55.38
2022-07-26T09:24:01.909Z,54.97
2022-07-26T09:25:01.898Z,55.00
2022-07-26T09:26:01.866Z,56.23
2022-07-26T09:27:01.845Z,56.35
2022-07-26T09:28:01.899Z,57.24
2022-07-26T09:29:01.845Z,57.05
2022-07-26T09:30:01.816Z,56.72
2022-07-26T09:31:01.871Z,56.85
2022-07-26T09:32:01.819Z,57.09
2022-07-26T09:33:02.169Z,56.30
2022-07-26T09:34:01.796Z,55.93
2022-07-26T09:35:01.788Z,56.57
2022-07-26T09:36:01.760Z,57.40
2022-07-26T09:37:01.741Z,57.80
2022-07-26T09:38:01.742Z,57.80
2022-07-26T09:39:01.974Z,57.60
2022-07-26T09:40:01.722Z,57.80
2022-07-26T09:41:01.699Z,57.05
2022-07-26T09:42:26.119Z,56.32
2022-07-26T09:43:02.680Z,56.23
2022-07-26T09:44:01.677Z,56.87
2022-07-26T09:45:01.706Z,57.15
2022-07-26T09:46:01.695Z,57.37
2022-07-26T09:47:01.781Z,58.00
2022-07-26T09:48:01.633Z,58.29
2022-07-26T09:49:11.011Z,58.40
2022-07-26T09:50:03.833Z,58.10
2022-07-26T09:51:01.592Z,58.59
2022-07-26T09:52:01.614Z,57.87
2022-07-26T09:53:01.594Z,57.64
2022-07-26T09:54:01.573Z,57.32
2022-07-26T09:55:01.549Z,56.99
2022-07-26T09:56:01.792Z,55.77
2022-07-26T09:57:01.562Z,55.44
2022-07-26T09:58:01.545Z,54.13
2022-07-26T09:59:01.492Z,53.33
2022-07-26T10:00:01.507Z,52.56
2022-07-26T10:01:02.641Z,52.99
2022-07-26T10:02:01.540Z,53.31
2022-07-26T10:03:01.527Z,53.61
2022-07-26T10:04:01.459Z,54.11
2022-07-26T10:05:01.465Z,53.88
2022-07-26T10:06:01.422Z,53.66
2022-07-26T10:07:01.408Z,54.08
2022-07-26T10:08:01.419Z,53.81
2022-07-26T10:09:01.381Z,53.81
2022-07-26T10:10:01.380Z,54.11
2022-07-26T10:11:01.363Z,53.81
2022-07-26T10:12:01.352Z,54.33
2022-07-26T10:13:01.358Z,54.93
2022-07-26T10:14:01.319Z,54.73
2022-07-26T10:15:01.325Z,54.83
2022-07-26T10:16:01.362Z,55.10
2022-07-26T10:17:01.292Z,54.38
2022-07-26T10:18:01.282Z,54.58
2022-07-26T10:19:01.281Z,54.31
2022-07-26T10:20:01.261Z,54.28
2022-07-26T10:21:01.244Z,53.91
2022-07-26T10:22:01.243Z,54.71
2022-07-26T10:23:01.265Z,55.30
2022-07-26T10:24:01.214Z,54.90
2022-07-26T10:25:01.224Z,54.78
2022-07-26T10:26:01.193Z,54.28
2022-07-26T10:27:01.183Z,55.53
2022-07-26T10:28:01.167Z,55.43
2022-07-26T10:29:01.166Z,55.20
2022-07-26T10:30:01.154Z,55.10
2022-07-26T10:31:01.232Z,55.13
2022-07-26T10:32:01.162Z,55.40
2022-07-26T10:33:01.131Z,54.46
2022-07-26T10:34:01.095Z,54.13
2022-07-26T10:35:01.087Z,52.81
2022-07-26T10:36:01.085Z,53.14
2022-07-26T10:37:01.098Z,53.48
2022-07-26T10:38:01.071Z,51.70
2022-07-26T10:39:01.077Z,52.61
2022-07-26T10:40:01.038Z,53.23
2022-07-26T10:41:01.066Z,53.93
2022-07-26T10:42:01.031Z,53.36
2022-07-26T10:43:17.106Z,53.86
2022-07-26T10:44:01.991Z,53.56
2022-07-26T10:45:00.967Z,54.25
2022-07-26T10:46:00.991Z,54.25
2022-07-26T10:47:01.011Z,53.86
2022-07-26T10:48:00.961Z,53.23
2022-07-26T10:49:01.028Z,52.94
2022-07-26T10:50:00.933Z,53.53
2022-07-26T10:51:05.844Z,53.51
2022-07-26T10:52:01.893Z,53.53
2022-07-26T10:53:00.913Z,54.33
2022-07-26T10:54:00.900Z,55.12
2022-07-26T10:55:00.880Z,54.72
2022-07-26T10:56:00.844Z,55.35
2022-07-26T10:57:00.842Z,55.85
2022-07-26T10:58:00.840Z,56.27
2022-07-26T10:59:00.847Z,56.37
2022-07-26T11:00:00.815Z,55.65
2022-07-26T11:01:00.825Z,55.55
2022-07-26T11:02:00.832Z,55.25
2022-07-26T11:03:00.853Z,54.68
2022-07-26T11:04:00.844Z,54.75
2022-07-26T11:05:00.776Z,54.23
2022-07-26T11:06:00.735Z,54.46
2022-07-26T11:07:00.725Z,54.97
2022-07-26T11:08:00.726Z,55.67
2022-07-26T11:09:00.708Z,55.55
2022-07-26T11:10:00.730Z,55.94
2022-07-26T11:11:00.687Z,56.59
2022-07-26T11:12:00.681Z,56.79
2022-07-26T11:13:00.671Z,57.17
2022-07-26T11:14:00.673Z,56.54
2022-07-26T11:15:00.639Z,55.82
2022-07-26T11:16:00.716Z,55.55
2022-07-26T11:17:00.619Z,55.94
2022-07-26T11:18:00.621Z,56.67
2022-07-26T11:19:00.587Z,57.09
2022-07-26T11:20:00.587Z,56.99
2022-07-26T11:21:00.598Z,56.99
2022-07-26T11:22:00.667Z,56.79
2022-07-26T11:23:00.549Z,56.67
2022-07-26T11:24:00.533Z,56.44
2022-07-26T11:25:00.545Z,55.55
2022-07-26T11:26:02.284Z,55.44
2022-07-26T11:27:00.613Z,55.42
2022-07-26T11:28:00.500Z,55.10
2022-07-26T11:29:00.481Z,54.57
2022-07-26T11:30:00.471Z,54.72
2022-07-26T11:31:00.586Z,55.65
2022-07-26T11:32:04.810Z,56.17
2022-07-26T11:33:01.467Z,56.34
2022-07-26T11:34:00.434Z,56.24
2022-07-26T11:35:00.440Z,56.34
2022-07-26T11:36:00.415Z,56.74
2022-07-26T11:37:00.406Z,56.24
2022-07-26T11:38:11.077Z,56.51
2022-07-26T11:39:01.364Z,56.32
2022-07-26T11:40:00.386Z,55.49
2022-07-26T11:41:00.347Z,55.49
2022-07-26T11:42:00.335Z,54.50
2022-07-26T11:43:00.331Z,54.93
2022-07-26T11:44:02.378Z,55.32
2022-07-26T11:45:00.320Z,56.54
2022-07-26T11:46:00.352Z,55.25
2022-07-26T11:47:00.299Z,55.91
2022-07-26T11:48:00.268Z,55.74
2022-07-26T11:49:00.376Z,56.07
2022-07-26T11:50:16.881Z,55.85
2022-07-26T11:51:01.246Z,55.82
2022-07-26T11:52:01.237Z,55.02
2022-07-26T11:53:00.250Z,54.90
2022-07-26T11:54:00.202Z,54.50
2022-07-26T11:55:00.252Z,54.63
2022-07-26T11:56:00.170Z,54.50
2022-07-26T11:57:00.174Z,54.43
2022-07-26T11:58:00.161Z,55.44
2022-07-26T11:59:00.164Z,55.02
2022-07-26T12:00:00.287Z,54.72
2022-07-26T12:01:00.169Z,54.08
2022-07-26T12:02:00.165Z,52.47
2022-07-26T12:03:00.139Z,52.56
2022-07-26T12:04:00.229Z,51.07
2022-07-26T12:05:00.223Z,51.35
2022-07-26T12:06:00.071Z,51.23
2022-07-26T12:07:00.111Z,50.51
2022-07-26T12:08:00.141Z,50.60
2022-07-26T12:09:00.075Z,50.29
2022-07-26T12:10:00.053Z,50.13
2022-07-26T12:11:00.025Z,50.26
2022-07-26T12:12:00.011Z,50.65
2022-07-26T12:13:00.143Z,50.43
2022-07-26T12:13:59.989Z,49.84
2022-07-26T12:14:59.988Z,49.44
2022-07-26T12:15:59.984Z,50.36
2022-07-26T12:16:59.965Z,51.20
2022-07-26T12:17:59.951Z,51.15
2022-07-26T12:18:59.996Z,50.53
2022-07-26T12:19:59.911Z,50.01
2022-07-26T12:21:04.414Z,50.01
2022-07-26T12:22:00.897Z,49.66
2022-07-26T12:22:59.914Z,50.23
2022-07-26T12:23:59.880Z,50.34
2022-07-26T12:24:59.900Z,50.23
2022-07-26T12:25:59.844Z,51.23
2022-07-26T12:26:59.853Z,50.65
2022-07-26T12:27:59.833Z,51.05
2022-07-26T12:28:59.856Z,50.83
2022-07-26T12:29:59.801Z,51.23
2022-07-26T12:30:59.865Z,50.95
2022-07-26T12:31:59.774Z,51.23
2022-07-26T12:32:59.783Z,50.83
2022-07-26T12:33:59.751Z,50.29
2022-07-26T12:34:59.745Z,50.53
2022-07-26T12:35:59.760Z,51.47
2022-07-26T12:36:59.738Z,52.37
2022-07-26T12:37:59.703Z,51.67
2022-07-26T12:39:00.091Z,52.37
2022-07-26T12:39:59.718Z,51.94
2022-07-26T12:40:59.673Z,51.75
2022-07-26T12:41:59.714Z,52.14
2022-07-26T12:43:02.259Z,51.20
2022-07-26T12:43:59.643Z,50.98
2022-07-26T12:44:59.628Z,50.18
2022-07-26T12:45:59.658Z,49.89
2022-07-26T12:46:59.606Z,49.49
2022-07-26T12:47:59.629Z,49.99
2022-07-26T12:49:00.699Z,49.87
2022-07-26T12:49:59.569Z,49.37
2022-07-26T12:50:59.557Z,49.07
2022-07-26T12:51:59.553Z,50.21